Time;durP1;ratioP1;P1;durP2;ratioP2;P2;SDS_P1;SDS_P2;PMS_P1;PMS_P2;Temp;Humidity;BMP_temperature;BMP_pressure;BME280_temperature;BME280_humidity;BME280_pressure;Samples;Min_cycle;Max_cycle;Signal;HPM_P1;HPM_P2
2023/05/14 00:02:25;;;;;;;8.10;3.58;;;12.00;70.60;;;;;;5049781;28;20032;-77
2023/05/14 00:04:52;;;;;;;6.80;3.55;;;12.00;70.50;;;;;;5052570;28;20032;-77
2023/05/14 00:07:17;;;;;;;9.48;3.47;;;12.00;70.30;;;;;;5037778;28;20024;-77
2023/05/14 00:09:43;;;;;;;9.88;3.75;;;11.80;70.90;;;;;;5053341;28;20079;-77
2023/05/14 00:12:08;;;;;;;5.55;3.72;;;11.90;69.90;;;;;;5056184;28;20036;-77
2023/05/14 00:14:34;;;;;;;6.65;3.78;;;11.80;71.10;;;;;;5058792;28;20108;-77
2023/05/14 00:17:00;;;;;;;4.70;3.20;;;11.90;70.90;;;;;;5056407;28;20056;-77
2023/05/14 00:19:25;;;;;;;5.57;3.70;;;11.90;70.70;;;;;;5052954;28;20518;-77
2023/05/14 00:21:51;;;;;;;7.25;3.60;;;11.70;70.60;;;;;;5063129;28;20036;-77
2023/05/14 00:24:17;;;;;;;6.38;3.33;;;11.60;71.30;;;;;;5049693;28;20060;-77
2023/05/14 00:26:42;;;;;;;8.85;3.35;;;11.50;71.50;;;;;;5047974;28;20143;-77
2023/05/14 00:29:08;;;;;;;6.45;4.03;;;11.50;72.00;;;;;;5052881;28;20036;-77
2023/05/14 00:31:34;;;;;;;6.30;3.72;;;11.50;71.90;;;;;;5066411;28;20028;-77
2023/05/14 00:33:59;;;;;;;7.60;3.92;;;11.50;72.10;;;;;;5042910;28;20040;-77
2023/05/14 00:36:25;;;;;;;8.82;3.70;;;11.40;72.40;;;;;;5049321;28;20529;-77
2023/05/14 00:38:50;;;;;;;6.43;3.90;;;11.40;72.30;;;;;;5054137;28;20032;-77
2023/05/14 00:41:16;;;;;;;6.70;3.72;;;11.30;73.10;;;;;;5052686;28;20037;-77
2023/05/14 00:43:41;;;;;;;8.27;4.05;;;11.30;72.80;;;;;;5053299;28;20036;-77
2023/05/14 00:46:07;;;;;;;7.32;4.30;;;11.20;74.10;;;;;;5054148;28;20095;-76
2023/05/14 00:48:33;;;;;;;7.68;4.22;;;11.10;74.40;;;;;;5050526;28;20044;-77
2023/05/14 00:50:58;;;;;;;8.68;4.82;;;11.00;74.40;;;;;;5052649;28;20255;-76
2023/05/14 00:53:24;;;;;;;8.32;4.82;;;11.00;74.30;;;;;;5052921;28;20057;-77
2023/05/14 00:55:50;;;;;;;6.47;4.47;;;11.00;74.20;;;;;;5054413;28;20033;-77
2023/05/14 00:58:17;;;;;;;7.72;4.50;;;10.90;75.80;;;;;;5052610;28;20470;-77
2023/05/14 01:00:42;;;;;;;6.15;3.80;;;10.80;76.50;;;;;;5057742;28;20070;-77
2023/05/14 01:03:08;;;;;;;7.55;4.35;;;10.70;76.00;;;;;;5052527;28;20041;-77
2023/05/14 01:06:11;;;;;;;6.72;4.20;;;10.60;76.90;;;;;;5051453;28;20083;-76
2023/05/14 01:09:12;;;;;;;5.68;3.63;;;10.50;76.20;;;;;;5051931;28;20037;-77
2023/05/14 01:11:38;;;;;;;;;;;10.50;77.20;;;;;;5055709;28;20037;-77
2023/05/14 01:14:20;;;;;;;8.15;4.18;;;10.50;76.60;;;;;;5061783;28;19927;-77
2023/05/14 01:16:49;;;;;;;8.80;3.72;;;10.40;77.80;;;;;;5058111;28;20029;-76
2023/05/14 01:19:33;;;;;;;6.25;4.25;;;10.40;77.70;;;;;;5049376;28;20029;-76
2023/05/14 01:21:58;;;;;;;7.35;4.57;;;10.30;78.20;;;;;;5045297;28;20465;-77
2023/05/14 01:24:24;;;;;;;8.23;4.45;;;10.30;79.50;;;;;;5054599;28;20056;-76
2023/05/14 01:26:50;;;;;;;8.43;4.50;;;10.30;80.30;;;;;;5064780;28;20048;-76
2023/05/14 01:29:20;;;;;;;7.28;4.60;;;10.20;80.00;;;;;;5052804;28;20061;-76
2023/05/14 01:31:48;;;;;;;6.55;4.43;;;10.20;80.00;;;;;;5050169;28;20024;-77
2023/05/14 01:34:18;;;;;;;8.05;4.47;;;10.10;79.50;;;;;;5039718;28;20383;-76
2023/05/14 01:36:46;;;;;;;9.57;4.88;;;10.10;80.30;;;;;;5065540;28;20024;-76
2023/05/14 01:39:14;;;;;;;8.52;4.60;;;10.10;80.30;;;;;;5052654;28;20104;-76
2023/05/14 01:41:41;;;;;;;7.72;4.18;;;10.10;80.90;;;;;;5060650;28;20036;-77
2023/05/14 01:44:10;;;;;;;12.25;4.82;;;10.20;79.80;;;;;;5057625;28;20136;-76
2023/05/14 01:46:35;;;;;;;6.57;4.00;;;10.30;80.00;;;;;;5061925;28;20024;-76
2023/05/14 01:49:01;;;;;;;5.88;4.13;;;10.50;78.70;;;;;;5053371;28;20059;-76
2023/05/14 01:51:26;;;;;;;7.15;4.32;;;10.50;78.30;;;;;;5061718;28;20086;-76
2023/05/14 01:53:52;;;;;;;8.23;4.38;;;10.40;78.50;;;;;;5067173;28;20030;-76
2023/05/14 01:56:20;;;;;;;6.47;4.30;;;10.40;78.60;;;;;;5063140;28;20043;-76
2023/05/14 01:58:46;;;;;;;8.13;4.00;;;10.30;78.80;;;;;;5067790;28;20031;-76
2023/05/14 02:01:11;;;;;;;4.90;4.00;;;10.30;79.30;;;;;;5065822;28;20037;-76
2023/05/14 02:03:37;;;;;;;6.78;4.32;;;10.30;79.40;;;;;;5063522;28;20061;-76
2023/05/14 02:06:02;;;;;;;8.43;4.22;;;10.30;79.60;;;;;;5045273;28;20037;-77
2023/05/14 02:08:28;;;;;;;8.02;4.47;;;10.20;79.60;;;;;;5061063;28;20037;-76
2023/05/14 02:10:53;;;;;;;6.22;4.30;;;10.10;80.30;;;;;;5063055;28;20020;-76
2023/05/14 02:13:19;;;;;;;6.57;4.28;;;10.10;80.40;;;;;;5072049;28;20104;-76
2023/05/14 02:15:44;;;;;;;10.57;4.47;;;10.00;80.60;;;;;;5059194;28;20021;-77
2023/05/14 02:18:10;;;;;;;7.63;4.60;;;9.90;80.70;;;;;;5061712;28;20423;-76
2023/05/14 02:20:35;;;;;;;7.45;4.57;;;9.80;81.30;;;;;;5056838;28;20048;-77
2023/05/14 02:23:00;;;;;;;6.38;4.60;;;9.80;81.00;;;;;;5040303;28;20029;-77
2023/05/14 02:25:26;;;;;;;8.10;4.85;;;9.80;81.50;;;;;;5052813;28;20695;-76
2023/05/14 02:27:51;;;;;;;7.78;4.80;;;9.60;82.10;;;;;;5067865;28;20048;-76
2023/05/14 02:30:17;;;;;;;8.57;4.75;;;9.60;82.20;;;;;;5062449;28;20025;-77
2023/05/14 02:32:42;;;;;;;6.65;4.15;;;9.60;81.80;;;;;;5048008;28;20045;-76
2023/05/14 02:35:08;;;;;;;6.78;4.63;;;9.50;82.00;;;;;;5031908;28;20034;-76
2023/05/14 02:37:34;;;;;;;7.00;4.55;;;9.50;82.40;;;;;;5042413;28;20033;-76
2023/05/14 02:39:59;;;;;;;8.30;4.90;;;9.40;82.70;;;;;;5052535;28;20025;-76
2023/05/14 02:42:25;;;;;;;7.55;4.95;;;9.30;82.60;;;;;;5049377;28;20154;-76
2023/05/14 02:44:51;;;;;;;8.05;5.18;;;9.40;83.90;;;;;;5051646;28;20477;-77
2023/05/14 02:47:17;;;;;;;8.05;4.90;;;9.40;84.20;;;;;;5049877;28;20044;-76
2023/05/14 02:49:42;;;;;;;9.65;5.65;;;9.30;83.70;;;;;;5051056;28;20053;-76
2023/05/14 02:52:08;;;;;;;7.38;5.35;;;9.30;83.70;;;;;;5050161;28;20044;-76
2023/05/14 02:54:33;;;;;;;6.63;5.10;;;9.50;84.20;;;;;;5038017;28;20374;-77
2023/05/14 02:56:59;;;;;;;10.50;5.05;;;9.40;84.40;;;;;;5049190;28;20033;-76
2023/05/14 02:59:25;;;;;;;9.65;5.85;;;9.50;83.90;;;;;;5051433;28;20033;-76
2023/05/14 03:01:50;;;;;;;7.97;5.47;;;9.60;83.80;;;;;;5048275;28;20433;-76
2023/05/14 03:04:16;;;;;;;7.45;5.47;;;9.70;82.60;;;;;;5038196;28;20048;-76
2023/05/14 03:06:41;;;;;;;7.35;5.55;;;9.70;82.70;;;;;;5042069;28;20501;-76
2023/05/14 03:09:07;;;;;;;7.70;5.65;;;9.90;82.10;;;;;;5040617;28;20155;-77
2023/05/14 03:11:32;;;;;;;8.43;5.07;;;9.90;81.90;;;;;;5042371;28;20457;-76
2023/05/14 03:13:58;;;;;;;12.02;4.97;;;9.80;82.30;;;;;;5048811;28;20039;-76
2023/05/14 03:16:23;;;;;;;9.32;5.07;;;9.80;82.00;;;;;;5050145;28;20037;-77
2023/05/14 03:18:49;;;;;;;8.38;5.40;;;9.80;83.00;;;;;;5050621;28;20041;-76
2023/05/14 03:21:14;;;;;;;7.97;5.25;;;9.70;82.60;;;;;;5047165;28;20116;-76
2023/05/14 03:23:40;;;;;;;6.47;4.82;;;9.60;82.80;;;;;;5040681;28;20039;-77
2023/05/14 03:26:06;;;;;;;6.40;4.72;;;9.50;83.70;;;;;;5051376;28;20068;-76
2023/05/14 03:28:32;;;;;;;7.53;5.40;;;9.50;83.20;;;;;;5047535;28;20072;-76
2023/05/14 03:30:57;;;;;;;9.88;5.15;;;9.40;83.60;;;;;;5051761;28;20036;-76
2023/05/14 03:33:24;;;;;;;10.27;5.55;;;9.30;83.80;;;;;;5043112;28;20041;-76
2023/05/14 03:35:50;;;;;;;8.55;5.68;;;9.30;84.30;;;;;;5049665;28;20032;-76
2023/05/14 03:38:16;;;;;;;7.13;5.25;;;9.30;84.20;;;;;;5057211;28;20020;-76
2023/05/14 03:40:44;;;;;;;6.45;4.88;;;9.30;84.10;;;;;;5051698;28;20381;-76
2023/05/14 03:43:10;;;;;;;8.70;5.43;;;9.20;84.70;;;;;;5058106;28;20025;-76
2023/05/14 03:45:35;;;;;;;7.13;4.88;;;9.20;84.60;;;;;;5054216;28;21101;-76
2023/05/14 03:48:01;;;;;;;8.20;5.50;;;9.20;85.20;;;;;;5051818;28;20071;-76
2023/05/14 03:50:26;;;;;;;7.45;5.10;;;9.20;84.80;;;;;;5056382;28;20434;-76
2023/05/14 03:52:53;;;;;;;8.18;5.25;;;9.10;84.80;;;;;;5050977;28;20055;-76
2023/05/14 03:55:19;;;;;;;10.90;5.47;;;9.10;85.00;;;;;;5057544;28;20120;-76
2023/05/14 03:57:44;;;;;;;7.70;5.32;;;9.30;85.70;;;;;;5055774;28;20536;-76
2023/05/14 04:00:11;;;;;;;7.38;5.05;;;9.40;84.80;;;;;;5069639;28;20062;-76
2023/05/14 04:02:36;;;;;;;8.20;5.28;;;9.30;85.30;;;;;;5045524;28;20108;-76
2023/05/14 04:05:02;;;;;;;7.10;5.20;;;9.30;85.60;;;;;;5054158;28;20100;-76
2023/05/14 04:07:27;;;;;;;9.48;5.95;;;9.40;86.10;;;;;;5039789;28;20033;-76
2023/05/14 04:09:52;;;;;;;9.00;5.32;;;9.60;85.70;;;;;;5048087;28;20033;-76
2023/05/14 04:12:18;;;;;;;9.15;5.32;;;9.60;85.60;;;;;;5038731;28;20025;-76
2023/05/14 04:14:43;;;;;;;10.35;4.90;;;9.70;85.20;;;;;;5055914;28;20073;-76
2023/05/14 04:17:09;;;;;;;8.95;5.10;;;9.80;85.20;;;;;;5047576;28;20025;-76
2023/05/14 04:19:34;;;;;;;7.95;4.93;;;10.00;84.80;;;;;;5047072;28;20465;-77
2023/05/14 04:22:00;;;;;;;7.20;5.13;;;10.00;85.00;;;;;;5055435;28;20427;-76
2023/05/14 04:24:25;;;;;;;6.22;5.18;;;10.10;84.80;;;;;;5045810;28;20049;-76
2023/05/14 04:26:51;;;;;;;7.65;4.50;;;10.10;84.70;;;;;;5053429;28;20029;-76
2023/05/14 04:29:16;;;;;;;8.15;4.85;;;10.20;84.40;;;;;;5064345;28;20043;-74
2023/05/14 04:31:42;;;;;;;7.60;4.72;;;10.30;84.30;;;;;;5065222;28;20033;-74
2023/05/14 04:34:07;;;;;;;7.05;4.70;;;10.30;84.20;;;;;;5031150;28;20029;-74
2023/05/14 04:36:33;;;;;;;7.70;4.93;;;10.30;85.00;;;;;;5054732;28;20039;-74
2023/05/14 04:38:58;;;;;;;5.70;4.35;;;10.30;84.10;;;;;;5050627;28;20041;-74
2023/05/14 04:41:24;;;;;;;7.97;5.07;;;10.50;83.60;;;;;;5049626;28;20284;-74
2023/05/14 04:43:49;;;;;;;7.90;4.82;;;10.50;84.10;;;;;;5063436;28;20048;-75
2023/05/14 04:46:15;;;;;;;7.40;4.55;;;10.50;83.90;;;;;;5044080;28;20239;-74
2023/05/14 04:48:40;;;;;;;5.95;4.20;;;10.70;84.10;;;;;;5040531;28;20032;-74
2023/05/14 04:51:06;;;;;;;7.53;4.70;;;10.80;83.30;;;;;;5046752;28;20031;-74
2023/05/14 04:53:32;;;;;;;5.63;4.00;;;11.10;81.90;;;;;;5049504;28;20025;-74
2023/05/14 04:55:57;;;;;;;6.65;3.83;;;11.10;81.80;;;;;;5050307;28;20037;-74
2023/05/14 04:58:23;;;;;;;6.60;3.92;;;11.40;80.70;;;;;;5047557;28;20083;-74
2023/05/14 05:00:49;;;;;;;7.35;4.50;;;11.40;81.50;;;;;;5048163;28;20369;-74
2023/05/14 05:03:14;;;;;;;7.72;3.90;;;11.40;82.00;;;;;;5046941;28;20038;-74
2023/05/14 05:05:40;;;;;;;7.03;4.03;;;11.50;81.10;;;;;;5040355;28;20065;-74
2023/05/14 05:08:05;;;;;;;6.72;4.18;;;11.50;81.80;;;;;;5049921;28;20056;-74
2023/05/14 05:10:31;;;;;;;9.82;4.10;;;11.50;81.80;;;;;;5049756;28;20021;-74
2023/05/14 05:12:56;;;;;;;7.47;4.15;;;11.70;80.50;;;;;;5049863;28;20467;-74
2023/05/14 05:15:22;;;;;;;6.22;4.20;;;11.80;81.30;;;;;;5048154;28;20032;-74
2023/05/14 05:17:47;;;;;;;5.90;4.05;;;11.80;81.00;;;;;;5049052;28;20021;-74
2023/05/14 05:20:13;;;;;;;5.95;4.40;;;11.80;80.80;;;;;;5052218;28;20445;-74
2023/05/14 05:22:38;;;;;;;6.53;4.40;;;12.00;80.20;;;;;;5044548;28;20155;-74
2023/05/14 05:25:05;;;;;;;6.25;4.00;;;12.10;79.70;;;;;;5054014;28;20084;-74
2023/05/14 05:27:31;;;;;;;6.18;4.32;;;12.30;79.60;;;;;;5052553;28;20017;-74
2023/05/14 05:29:57;;;;;;;5.68;4.07;;;12.50;78.20;;;;;;5048855;28;20120;-75
2023/05/14 05:32:22;;;;;;;7.43;4.25;;;12.50;78.40;;;;;;5055711;28;20099;-75
2023/05/14 05:34:50;;;;;;;6.13;4.13;;;12.60;77.70;;;;;;5045998;28;20040;-75
2023/05/14 05:37:16;;;;;;;7.10;4.32;;;12.80;77.10;;;;;;5054454;28;20017;-75
2023/05/14 05:39:41;;;;;;;8.82;4.75;;;13.00;76.20;;;;;;5058140;28;20158;-75
2023/05/14 05:42:07;;;;;;;6.05;4.55;;;13.00;76.60;;;;;;5060903;28;20408;-75
2023/05/14 05:44:32;;;;;;;8.02;4.10;;;13.10;75.50;;;;;;5052841;28;20432;-75
2023/05/14 05:46:58;;;;;;;6.60;4.32;;;13.30;75.80;;;;;;5051134;28;20370;-74
2023/05/14 05:49:23;;;;;;;9.30;4.15;;;13.40;74.70;;;;;;5051177;28;20142;-75
2023/05/14 05:51:49;;;;;;;6.35;4.32;;;13.50;74.00;;;;;;5050529;28;20098;-75
2023/05/14 05:54:14;;;;;;;4.78;3.40;;;13.70;73.70;;;;;;5052616;28;20025;-75
2023/05/14 05:56:40;;;;;;;10.95;3.88;;;13.80;73.40;;;;;;5053487;28;20036;-73
2023/05/14 05:59:05;;;;;;;5.95;3.65;;;14.00;74.50;;;;;;5051313;28;20040;-72
2023/05/14 06:01:31;;;;;;;4.95;3.42;;;14.10;74.70;;;;;;5049972;28;20021;-72
2023/05/14 06:03:56;;;;;;;6.45;3.50;;;14.30;73.60;;;;;;5051429;28;20063;-72
2023/05/14 06:06:22;;;;;;;7.45;4.07;;;14.40;72.30;;;;;;5041555;28;20036;-72
2023/05/14 06:08:47;;;;;;;6.13;3.90;;;14.60;71.90;;;;;;5051181;28;20037;-72
2023/05/14 06:11:14;;;;;;;6.85;3.20;;;14.70;72.20;;;;;;5052775;28;20029;-73
2023/05/14 06:13:39;;;;;;;9.18;3.92;;;14.80;71.50;;;;;;5051105;28;20526;-73
2023/05/14 06:16:05;;;;;;;4.65;3.45;;;15.00;69.90;;;;;;5051627;28;20147;-72
2023/05/14 06:18:30;;;;;;;6.28;3.58;;;15.10;72.30;;;;;;5052118;28;20029;-73
2023/05/14 06:20:58;;;;;;;4.47;3.25;;;15.30;70.10;;;;;;5050845;28;20039;-72
2023/05/14 06:23:25;;;;;;;5.90;3.28;;;15.50;69.70;;;;;;5050959;28;20040;-73
2023/05/14 06:25:50;;;;;;;6.43;3.63;;;15.50;68.00;;;;;;5051928;28;20083;-75
2023/05/14 06:28:16;;;;;;;5.60;3.33;;;15.60;68.90;;;;;;5050807;28;20114;-75
2023/05/14 06:30:41;;;;;;;5.28;3.60;;;15.80;67.80;;;;;;5051759;28;20376;-75
2023/05/14 06:33:07;;;;;;;5.20;3.20;;;15.80;66.70;;;;;;5042280;28;20087;-75
2023/05/14 06:35:33;;;;;;;3.90;2.72;;;16.00;67.00;;;;;;5042548;28;20039;-75
2023/05/14 06:37:59;;;;;;;5.90;3.30;;;16.20;67.30;;;;;;5056381;28;20035;-75
2023/05/14 06:40:24;;;;;;;5.35;3.08;;;16.40;68.00;;;;;;5064062;28;20120;-75
2023/05/14 06:42:50;;;;;;;4.63;2.70;;;16.50;66.90;;;;;;5054575;28;20028;-75
2023/05/14 06:45:15;;;;;;;5.38;2.65;;;17.00;68.40;;;;;;5047953;28;20082;-75
2023/05/14 06:47:41;;;;;;;4.38;2.97;;;17.20;66.80;;;;;;5047457;28;20056;-76
2023/05/14 06:50:06;;;;;;;4.30;2.78;;;17.10;63.70;;;;;;5062298;28;20384;-75
2023/05/14 06:52:32;;;;;;;4.75;3.00;;;17.30;65.40;;;;;;5040174;28;20056;-75
2023/05/14 06:54:57;;;;;;;4.88;3.05;;;17.60;64.40;;;;;;5048806;28;20033;-75
2023/05/14 06:57:23;;;;;;;6.72;2.92;;;17.80;64.10;;;;;;5047985;28;20849;-75
2023/05/14 06:59:49;;;;;;;5.53;2.90;;;17.90;62.00;;;;;;5060239;28;20034;-76
2023/05/14 07:02:14;;;;;;;3.78;2.63;;;18.00;60.80;;;;;;5055588;28;20025;-72
2023/05/14 07:04:40;;;;;;;4.60;2.65;;;17.70;60.40;;;;;;5065237;28;20033;-73
2023/05/14 07:07:05;;;;;;;2.65;2.30;;;18.10;60.90;;;;;;5048339;28;20020;-73
2023/05/14 07:09:31;;;;;;;3.95;2.25;;;18.30;59.70;;;;;;5050927;28;20031;-73
2023/05/14 07:11:56;;;;;;;5.25;2.30;;;18.70;59.20;;;;;;5045157;28;20033;-73
2023/05/14 07:14:21;;;;;;;3.90;2.47;;;18.70;58.10;;;;;;5049536;28;20049;-72
2023/05/14 07:16:47;;;;;;;3.72;2.28;;;19.00;59.60;;;;;;5049692;28;20146;-73
2023/05/14 07:19:12;;;;;;;4.32;2.05;;;19.10;56.20;;;;;;5050907;28;20040;-73
2023/05/14 07:21:38;;;;;;;4.95;2.17;;;18.70;58.10;;;;;;5051714;28;20810;-73
2023/05/14 07:24:04;;;;;;;3.25;2.20;;;18.90;55.60;;;;;;5063663;28;20079;-73
2023/05/14 07:26:30;;;;;;;3.75;2.28;;;19.10;54.90;;;;;;5063925;28;20070;-73
2023/05/14 07:28:56;;;;;;;3.20;1.95;;;19.50;55.60;;;;;;5047712;28;20389;-73
2023/05/14 07:31:21;;;;;;;3.30;2.10;;;19.90;54.40;;;;;;5045650;28;20044;-74
2023/05/14 07:33:46;;;;;;;5.72;2.53;;;19.50;53.80;;;;;;5033129;28;20026;-74
2023/05/14 07:36:12;;;;;;;5.38;2.60;;;19.60;53.60;;;;;;5052206;28;20048;-73
2023/05/14 07:38:38;;;;;;;4.32;2.40;;;20.20;55.30;;;;;;5045551;28;20029;-72
2023/05/14 07:41:03;;;;;;;3.40;2.30;;;20.40;51.70;;;;;;5055069;28;20029;-73
2023/05/14 07:43:29;;;;;;;4.28;2.30;;;20.20;51.40;;;;;;5055504;28;20029;-74
2023/05/14 07:45:55;;;;;;;4.72;2.30;;;20.10;52.10;;;;;;5059888;28;20040;-73
2023/05/14 07:48:21;;;;;;;5.07;2.20;;;19.80;52.90;;;;;;5047869;28;20024;-73
2023/05/14 07:50:47;;;;;;;6.95;2.70;;;20.40;53.70;;;;;;5053048;28;20478;-73
2023/05/14 07:53:13;;;;;;;5.93;2.20;;;20.50;50.20;;;;;;5056108;28;20040;-73
2023/05/14 07:55:39;;;;;;;4.28;2.33;;;20.40;50.30;;;;;;5054930;28;20028;-73
2023/05/14 07:58:04;;;;;;;5.60;2.30;;;20.90;51.60;;;;;;5047775;28;20150;-73
2023/05/14 08:00:30;;;;;;;4.00;2.60;;;21.00;51.50;;;;;;5047167;28;20028;-73
2023/05/14 08:02:55;;;;;;;4.13;2.33;;;21.00;48.40;;;;;;5048706;28;20412;-74
2023/05/14 08:05:21;;;;;;;3.40;2.15;;;21.00;47.40;;;;;;5042516;28;20075;-73
2023/05/14 08:07:46;;;;;;;5.00;2.22;;;21.00;48.60;;;;;;5044775;28;20052;-73
2023/05/14 08:10:12;;;;;;;4.90;2.28;;;20.70;49.90;;;;;;5050289;28;20060;-73
2023/05/14 08:12:38;;;;;;;4.93;2.58;;;21.20;49.70;;;;;;5054397;28;20082;-73
2023/05/14 08:15:06;;;;;;;3.72;2.00;;;20.60;48.70;;;;;;5053228;28;20106;-73
2023/05/14 08:17:32;;;;;;;3.55;1.98;;;21.00;50.30;;;;;;5048856;28;20025;-73
2023/05/14 08:19:57;;;;;;;5.25;2.15;;;21.10;48.90;;;;;;5047097;28;20363;-73
2023/05/14 08:22:22;;;;;;;5.55;2.40;;;21.30;48.20;;;;;;5056006;28;20028;-73
2023/05/14 08:24:48;;;;;;;5.65;2.25;;;21.00;48.70;;;;;;5053496;28;20059;-73
2023/05/14 08:27:15;;;;;;;4.18;2.28;;;21.80;47.80;;;;;;5050318;28;20810;-73
2023/05/14 08:29:40;;;;;;;3.47;2.50;;;22.10;48.80;;;;;;5053577;28;20495;-73
2023/05/14 08:32:06;;;;;;;4.40;2.08;;;22.30;47.50;;;;;;5046122;28;20369;-73
2023/05/14 08:34:31;;;;;;;4.25;1.80;;;22.00;45.10;;;;;;5034549;28;20048;-73
2023/05/14 08:36:58;;;;;;;2.95;2.10;;;21.50;45.20;;;;;;5057333;28;20036;-73
2023/05/14 08:39:23;;;;;;;4.75;2.10;;;21.40;46.90;;;;;;5059909;28;20374;-73
2023/05/14 08:41:50;;;;;;;4.30;2.13;;;21.10;45.80;;;;;;5050387;28;20036;-73
2023/05/14 08:44:19;;;;;;;4.90;1.80;;;21.20;47.40;;;;;;5047164;28;20025;-76
2023/05/14 08:46:45;;;;;;;5.35;2.22;;;21.40;45.50;;;;;;5051083;28;20036;-73
2023/05/14 08:49:44;;;;;;;4.57;2.22;;;21.40;47.00;;;;;;5050409;28;20025;-73
2023/05/14 08:52:10;;;;;;;5.15;2.13;;;22.20;48.10;;;;;;5052650;28;20052;-74
2023/05/14 08:54:35;;;;;;;4.35;2.10;;;22.50;45.50;;;;;;5055202;28;20491;-74
2023/05/14 08:57:05;;;;;;;4.97;1.98;;;22.30;44.10;;;;;;5052394;28;20124;-74
2023/05/14 08:59:30;;;;;;;4.68;2.03;;;22.40;43.20;;;;;;5049765;28;20142;-73
2023/05/14 09:02:00;;;;;;;2.95;2.13;;;22.20;44.00;;;;;;5050234;28;20028;-74
2023/05/14 09:04:26;;;;;;;6.65;2.38;;;22.00;44.30;;;;;;5053724;28;20021;-73
2023/05/14 09:06:53;;;;;;;3.25;2.20;;;21.80;43.40;;;;;;5052275;28;20040;-73
2023/05/14 09:09:22;;;;;;;5.13;2.22;;;21.40;43.50;;;;;;5052585;28;20060;-73
2023/05/14 09:11:51;;;;;;;8.73;2.45;;;21.50;45.00;;;;;;5049013;28;20037;-73
2023/05/14 09:14:18;;;;;;;6.22;2.17;;;22.30;43.50;;;;;;5048749;28;20032;-74
2023/05/14 09:16:44;;;;;;;5.88;2.15;;;22.90;45.70;;;;;;5052655;28;20444;-74
2023/05/14 09:19:11;;;;;;;7.07;2.45;;;22.90;41.10;;;;;;5051573;28;20479;-74
2023/05/14 09:21:37;;;;;;;5.03;2.45;;;22.00;39.90;;;;;;5048119;28;20167;-74
2023/05/14 09:24:03;;;;;;;4.40;2.30;;;21.80;42.10;;;;;;5054138;28;20104;-73
2023/05/14 09:26:31;;;;;;;4.28;1.95;;;21.70;45.20;;;;;;5051139;28;20021;-73
2023/05/14 09:29:01;;;;;;;4.13;2.42;;;21.40;43.70;;;;;;5046323;28;20041;-76
2023/05/14 09:31:29;;;;;;;4.80;2.55;;;22.00;44.20;;;;;;5044348;28;20028;-73
2023/05/14 09:33:55;;;;;;;6.13;2.40;;;21.60;44.40;;;;;;5045910;28;20111;-73
2023/05/14 09:36:20;;;;;;;3.67;2.20;;;21.40;44.40;;;;;;5055329;28;20490;-74
2023/05/14 09:38:45;;;;;;;6.70;2.25;;;21.10;43.60;;;;;;5057102;28;20372;-73
2023/05/14 09:41:11;;;;;;;6.43;2.20;;;21.00;43.90;;;;;;5056578;28;20020;-73
2023/05/14 09:43:37;;;;;;;4.93;2.35;;;21.00;45.20;;;;;;5049079;28;20040;-73
2023/05/14 09:46:02;;;;;;;5.72;2.25;;;20.80;43.80;;;;;;5055367;28;20032;-73
2023/05/14 09:48:28;;;;;;;4.60;2.20;;;21.50;46.10;;;;;;5047723;28;20060;-73
2023/05/14 09:50:54;;;;;;;4.88;2.40;;;22.00;42.50;;;;;;5054063;28;20036;-74
2023/05/14 09:53:19;;;;;;;3.97;2.30;;;22.90;41.40;;;;;;5050090;28;20025;-74
2023/05/14 09:55:45;;;;;;;2.95;2.05;;;23.30;41.10;;;;;;5061485;28;20035;-73
2023/05/14 09:58:13;;;;;;;5.93;2.70;;;23.00;40.80;;;;;;5051900;28;20369;-74
2023/05/14 10:00:42;;;;;;;3.92;2.50;;;22.30;40.10;;;;;;5047379;28;20025;-73
2023/05/14 10:03:08;;;;;;;4.35;2.30;;;21.50;42.30;;;;;;5049734;28;20021;-73
2023/05/14 10:05:39;;;;;;;4.55;2.45;;;21.60;45.30;;;;;;5041630;28;20366;-73
2023/05/14 10:08:20;;;;;;;3.92;2.25;;;21.50;42.80;;;;;;5057049;28;20025;-73
2023/05/14 10:10:50;;;;;;;4.45;2.30;;;21.50;43.90;;;;;;5051477;28;20339;-73
2023/05/14 10:13:21;;;;;;;4.90;2.60;;;21.50;44.80;;;;;;5058997;28;20368;-76
2023/05/14 10:15:50;;;;;;;5.60;2.20;;;21.50;45.30;;;;;;5053644;28;20504;-73
2023/05/14 10:18:19;;;;;;;3.90;2.08;;;21.30;43.50;;;;;;5059589;28;20028;-73
2023/05/14 10:21:03;;;;;;;6.15;2.30;;;21.20;44.40;;;;;;5051360;28;20031;-74
2023/05/14 10:23:29;;;;;;;6.65;2.35;;;21.50;45.40;;;;;;5053786;28;20040;-74
2023/05/14 10:25:56;;;;;;;5.32;2.33;;;21.70;42.70;;;;;;5050597;28;20051;-73
2023/05/14 10:28:22;;;;;;;9.50;2.65;;;21.90;43.80;;;;;;5058813;28;20068;-74
2023/05/14 10:30:48;;;;;;;3.83;2.47;;;22.20;45.60;;;;;;5056955;28;20460;-74
2023/05/14 10:33:17;;;;;;;4.47;2.33;;;21.80;41.40;;;;;;5045804;28;20086;-73
2023/05/14 10:36:01;;;;;;;5.60;2.30;;;22.00;45.70;;;;;;5052549;28;20029;-73
2023/05/14 10:38:34;;;;;;;5.32;2.20;;;21.40;40.40;;;;;;5040897;28;20127;-73
2023/05/14 10:41:02;;;;;;;6.20;2.70;;;21.10;41.70;;;;;;5053723;28;20031;-74
2023/05/14 10:43:29;;;;;;;6.70;2.65;;;21.40;44.00;;;;;;5050492;28;20119;-73
2023/05/14 10:45:56;;;;;;;6.78;2.38;;;21.10;41.60;;;;;;5054088;28;20021;-76
2023/05/14 10:48:22;;;;;;;5.10;2.75;;;21.70;42.80;;;;;;5051568;28;20496;-76
2023/05/14 10:50:50;;;;;;;5.35;2.15;;;22.30;41.10;;;;;;5049279;28;20078;-73
2023/05/14 10:53:16;;;;;;;5.93;2.47;;;22.40;41.10;;;;;;5050308;28;20032;-74
2023/05/14 10:55:43;;;;;;;7.32;2.90;;;22.00;40.20;;;;;;5051285;28;20453;-74
2023/05/14 10:58:10;;;;;;;4.75;2.35;;;21.80;40.00;;;;;;5053237;28;20117;-74
2023/05/14 11:00:36;;;;;;;3.70;2.20;;;22.00;43.50;;;;;;5047240;28;20029;-73
2023/05/14 11:03:04;;;;;;;4.65;2.47;;;21.80;40.50;;;;;;5050950;28;20031;-73
2023/05/14 11:05:30;;;;;;;4.70;2.53;;;21.60;41.50;;;;;;5048047;28;20099;-74
2023/05/14 11:07:57;;;;;;;3.60;2.35;;;21.60;41.20;;;;;;5051015;28;20091;-73
2023/05/14 11:10:24;;;;;;;4.57;2.58;;;21.00;42.50;;;;;;5049950;28;20365;-73
2023/05/14 11:12:51;;;;;;;4.47;2.40;;;21.20;41.50;;;;;;5050287;28;20025;-76
2023/05/14 11:15:21;;;;;;;4.32;2.33;;;21.40;43.50;;;;;;5049566;28;20017;-76
2023/05/14 11:17:48;;;;;;;4.05;2.45;;;21.60;44.20;;;;;;5054575;28;20086;-76
2023/05/14 11:20:15;;;;;;;4.28;2.05;;;21.40;41.70;;;;;;5050670;28;20017;-76
2023/05/14 11:22:42;;;;;;;5.95;2.33;;;21.20;42.60;;;;;;5047954;28;20111;-74
2023/05/14 11:25:08;;;;;;;5.93;2.30;;;21.50;43.20;;;;;;5051656;28;20111;-73
2023/05/14 11:27:36;;;;;;;5.38;2.33;;;21.40;43.00;;;;;;5048558;28;20021;-74
2023/05/14 11:30:02;;;;;;;7.55;2.38;;;21.30;42.20;;;;;;5056934;28;20373;-73
2023/05/14 11:32:30;;;;;;;4.50;2.20;;;21.50;42.10;;;;;;5045735;28;20053;-73
2023/05/14 11:34:56;;;;;;;5.07;2.20;;;21.60;43.00;;;;;;5052042;28;20081;-74
2023/05/14 11:37:21;;;;;;;5.68;2.20;;;21.90;42.10;;;;;;5059202;28;20112;-73
2023/05/14 11:39:52;;;;;;;5.90;2.50;;;22.10;41.60;;;;;;5049199;28;20036;-74
2023/05/14 11:42:18;;;;;;;;;;;22.20;40.20;;;;;;5046177;28;20036;-73
2023/05/14 11:44:52;;;;;;;2.72;1.98;;;22.70;41.90;;;;;;5052277;28;19987;-74
2023/05/14 11:47:20;;;;;;;6.15;2.10;;;23.40;40.40;;;;;;5050001;28;20028;-74
2023/05/14 11:49:47;;;;;;;5.15;2.08;;;24.00;36.80;;;;;;5049994;28;20393;-74
2023/05/14 11:52:14;;;;;;;3.88;1.95;;;23.70;38.50;;;;;;5047047;28;20028;-74
2023/05/14 11:54:41;;;;;;;4.05;2.30;;;24.20;35.80;;;;;;5051226;28;20025;-74
2023/05/14 11:57:18;;;;;;;4.47;1.90;;;24.00;39.60;;;;;;5046848;28;20054;-74
2023/05/14 11:59:44;;;;;;;3.38;1.80;;;24.20;36.00;;;;;;5050300;28;20028;-74
2023/05/14 12:02:16;;;;;;;6.07;2.13;;;24.50;34.90;;;;;;5047276;28;20025;-74
2023/05/14 12:04:43;;;;;;;5.90;1.90;;;25.20;33.40;;;;;;5049122;28;20029;-74
2023/05/14 12:07:10;;;;;;;3.80;1.95;;;25.70;32.20;;;;;;5048936;28;20028;-75
2023/05/14 12:09:41;;;;;;;4.38;1.98;;;26.00;32.10;;;;;;5049879;28;20028;-74
2023/05/14 12:12:09;;;;;;;3.70;1.67;;;25.90;31.30;;;;;;5047692;28;20461;-74
2023/05/14 12:14:37;;;;;;;3.63;1.80;;;25.50;34.60;;;;;;5045593;28;20017;-74
2023/05/14 12:17:10;;;;;;;3.83;2.05;;;24.80;33.30;;;;;;5047619;28;20038;-74
2023/05/14 12:19:39;;;;;;;4.63;2.10;;;23.50;35.90;;;;;;5048064;28;20036;-74
2023/05/14 12:22:05;;;;;;;4.22;2.13;;;23.60;38.80;;;;;;5036472;28;20025;-74
2023/05/14 12:24:30;;;;;;;5.43;2.55;;;23.70;37.60;;;;;;5052916;28;20462;-74
2023/05/14 12:27:00;;;;;;;5.57;2.10;;;24.10;35.20;;;;;;5052741;28;20487;-74
2023/05/14 12:29:25;;;;;;;7.85;2.03;;;24.30;36.20;;;;;;5054551;28;20080;-74
2023/05/14 12:31:51;;;;;;;6.43;2.05;;;24.70;35.60;;;;;;5050770;28;20056;-74
2023/05/14 12:34:16;;;;;;;4.05;2.25;;;24.70;36.10;;;;;;5064531;28;20021;-74
2023/05/14 12:36:42;;;;;;;3.88;2.13;;;24.00;36.40;;;;;;5053230;28;20029;-74
2023/05/14 12:39:09;;;;;;;3.85;2.03;;;23.70;38.60;;;;;;5054214;28;20029;-74
2023/05/14 12:41:35;;;;;;;4.57;2.17;;;24.70;38.00;;;;;;5053276;28;20029;-74
2023/05/14 12:44:03;;;;;;;5.00;2.20;;;24.80;38.00;;;;;;5054098;28;20112;-74
2023/05/14 12:46:28;;;;;;;5.25;2.17;;;24.60;35.30;;;;;;5054784;28;20426;-74